sensor_id;sensor_type;location;lat;lon;timestamp;P1;durP1;ratioP1;P2;durP2;ratioP2
24411;SDS011;12544;46.760;15.942;2022-12-13T00:01:43;21.48;;;12.77;;
24411;SDS011;12544;46.760;15.942;2022-12-13T00:04:14;16.88;;;11.35;;
24411;SDS011;12544;46.760;15.942;2022-12-13T00:06:41;18.08;;;11.00;;
24411;SDS011;12544;46.760;15.942;2022-12-13T00:09:07;17.52;;;11.63;;
24411;SDS011;12544;46.760;15.942;2022-12-13T00:11:33;18.13;;;12.43;;
24411;SDS011;12544;46.760;15.942;2022-12-13T00:13:59;18.08;;;11.55;;
24411;SDS011;12544;46.760;15.942;2022-12-13T00:16:25;23.20;;;11.88;;
24411;SDS011;12544;46.760;15.942;2022-12-13T00:18:59;18.10;;;11.77;;
24411;SDS011;12544;46.760;15.942;2022-12-13T00:21:29;22.42;;;14.55;;
24411;SDS011;12544;46.760;15.942;2022-12-13T00:23:56;17.23;;;12.73;;
24411;SDS011;12544;46.760;15.942;2022-12-13T00:26:30;19.23;;;10.77;;
24411;SDS011;12544;46.760;15.942;2022-12-13T00:29:00;18.42;;;12.25;;
24411;SDS011;12544;46.760;15.942;2022-12-13T00:31:27;19.70;;;12.48;;
24411;SDS011;12544;46.760;15.942;2022-12-13T00:33:55;18.08;;;11.85;;
24411;SDS011;12544;46.760;15.942;2022-12-13T00:36:21;16.85;;;11.15;;
24411;SDS011;12544;46.760;15.942;2022-12-13T00:38:47;17.05;;;11.15;;
24411;SDS011;12544;46.760;15.942;2022-12-13T00:41:24;13.30;;;10.05;;
24411;SDS011;12544;46.760;15.942;2022-12-13T00:43:52;15.52;;;10.32;;
24411;SDS011;12544;46.760;15.942;2022-12-13T00:46:18;14.32;;;10.85;;
24411;SDS011;12544;46.760;15.942;2022-12-13T00:48:50;12.95;;;10.40;;
24411;SDS011;12544;46.760;15.942;2022-12-13T00:51:17;12.15;;;9.95;;
24411;SDS011;12544;46.760;15.942;2022-12-13T00:53:59;12.60;;;9.68;;
24411;SDS011;12544;46.760;15.942;2022-12-13T00:56:26;13.32;;;8.95;;
24411;SDS011;12544;46.760;15.942;2022-12-13T00:58:54;17.75;;;11.43;;
24411;SDS011;12544;46.760;15.942;2022-12-13T01:01:21;12.80;;;9.63;;
24411;SDS011;12544;46.760;15.942;2022-12-13T01:03:53;13.88;;;9.27;;
24411;SDS011;12544;46.760;15.942;2022-12-13T01:06:20;11.93;;;8.73;;
24411;SDS011;12544;46.760;15.942;2022-12-13T01:08:49;14.60;;;10.38;;
24411;SDS011;12544;46.760;15.942;2022-12-13T01:11:15;14.10;;;9.98;;
24411;SDS011;12544;46.760;15.942;2022-12-13T01:13:41;13.18;;;9.80;;
24411;SDS011;12544;46.760;15.942;2022-12-13T01:16:08;16.80;;;10.43;;
24411;SDS011;12544;46.760;15.942;2022-12-13T01:18:35;16.27;;;10.10;;
24411;SDS011;12544;46.760;15.942;2022-12-13T01:21:02;17.35;;;9.52;;
24411;SDS011;12544;46.760;15.942;2022-12-13T01:23:30;11.98;;;9.00;;
24411;SDS011;12544;46.760;15.942;2022-12-13T01:25:57;12.68;;;8.82;;
24411;SDS011;12544;46.760;15.942;2022-12-13T01:28:23;11.68;;;9.30;;
24411;SDS011;12544;46.760;15.942;2022-12-13T01:30:52;17.10;;;10.60;;
24411;SDS011;12544;46.760;15.942;2022-12-13T01:33:19;22.45;;;11.65;;
24411;SDS011;12544;46.760;15.942;2022-12-13T01:35:46;29.92;;;15.20;;
24411;SDS011;12544;46.760;15.942;2022-12-13T01:38:12;17.52;;;11.48;;
24411;SDS011;12544;46.760;15.942;2022-12-13T01:40:50;16.92;;;10.60;;
24411;SDS011;12544;46.760;15.942;2022-12-13T01:43:22;15.73;;;10.18;;
24411;SDS011;12544;46.760;15.942;2022-12-13T01:45:52;14.32;;;10.02;;
24411;SDS011;12544;46.760;15.942;2022-12-13T01:48:21;17.33;;;10.70;;
24411;SDS011;12544;46.760;15.942;2022-12-13T01:50:52;16.40;;;9.95;;
24411;SDS011;12544;46.760;15.942;2022-12-13T01:53:22;14.88;;;9.90;;
24411;SDS011;12544;46.760;15.942;2022-12-13T01:55:56;14.68;;;10.18;;
24411;SDS011;12544;46.760;15.942;2022-12-13T01:58:28;17.50;;;9.65;;
24411;SDS011;12544;46.760;15.942;2022-12-13T02:00:54;13.85;;;9.50;;
24411;SDS011;12544;46.760;15.942;2022-12-13T02:03:29;15.80;;;9.70;;
24411;SDS011;12544;46.760;15.942;2022-12-13T02:08:28;16.27;;;10.68;;
24411;SDS011;12544;46.760;15.942;2022-12-13T02:10:54;13.25;;;9.10;;
24411;SDS011;12544;46.760;15.942;2022-12-13T02:13:22;15.15;;;9.27;;
24411;SDS011;12544;46.760;15.942;2022-12-13T02:18:42;13.32;;;9.70;;
24411;SDS011;12544;46.760;15.942;2022-12-13T02:24:35;12.30;;;9.05;;
24411;SDS011;12544;46.760;15.942;2022-12-13T02:29:57;10.77;;;9.45;;
24411;SDS011;12544;46.760;15.942;2022-12-13T02:32:47;11.68;;;8.70;;
24411;SDS011;12544;46.760;15.942;2022-12-13T02:38:10;14.02;;;9.20;;
24411;SDS011;12544;46.760;15.942;2022-12-13T02:40:46;14.35;;;9.93;;
24411;SDS011;12544;46.760;15.942;2022-12-13T02:43:25;17.33;;;10.55;;
24411;SDS011;12544;46.760;15.942;2022-12-13T02:46:14;14.93;;;10.07;;
24411;SDS011;12544;46.760;15.942;2022-12-13T02:48:43;17.27;;;11.50;;
24411;SDS011;12544;46.760;15.942;2022-12-13T02:51:10;15.95;;;11.07;;
24411;SDS011;12544;46.760;15.942;2022-12-13T02:53:38;15.50;;;10.32;;
24411;SDS011;12544;46.760;15.942;2022-12-13T02:56:06;17.33;;;10.77;;
24411;SDS011;12544;46.760;15.942;2022-12-13T02:58:32;15.80;;;9.80;;
24411;SDS011;12544;46.760;15.942;2022-12-13T03:03:57;16.88;;;10.43;;
24411;SDS011;12544;46.760;15.942;2022-12-13T03:09:43;13.48;;;9.60;;
24411;SDS011;12544;46.760;15.942;2022-12-13T03:15:34;14.40;;;9.43;;
24411;SDS011;12544;46.760;15.942;2022-12-13T03:18:11;12.90;;;9.30;;
24411;SDS011;12544;46.760;15.942;2022-12-13T03:20:47;13.23;;;9.40;;
24411;SDS011;12544;46.760;15.942;2022-12-13T03:23:18;12.35;;;8.32;;
24411;SDS011;12544;46.760;15.942;2022-12-13T03:25:46;9.88;;;8.13;;
24411;SDS011;12544;46.760;15.942;2022-12-13T03:28:16;14.57;;;9.48;;
24411;SDS011;12544;46.760;15.942;2022-12-13T03:30:41;13.40;;;9.23;;
24411;SDS011;12544;46.760;15.942;2022-12-13T03:33:07;15.13;;;9.55;;
24411;SDS011;12544;46.760;15.942;2022-12-13T03:35:32;10.82;;;8.45;;
24411;SDS011;12544;46.760;15.942;2022-12-13T03:37:59;16.48;;;9.23;;
24411;SDS011;12544;46.760;15.942;2022-12-13T03:40:26;11.63;;;7.93;;
24411;SDS011;12544;46.760;15.942;2022-12-13T03:42:53;10.25;;;7.53;;
24411;SDS011;12544;46.760;15.942;2022-12-13T03:45:19;11.18;;;8.00;;
24411;SDS011;12544;46.760;15.942;2022-12-13T03:47:45;10.20;;;7.15;;
24411;SDS011;12544;46.760;15.942;2022-12-13T03:50:12;9.63;;;7.53;;
24411;SDS011;12544;46.760;15.942;2022-12-13T03:52:38;9.23;;;6.95;;
24411;SDS011;12544;46.760;15.942;2022-12-13T03:55:03;12.25;;;8.32;;
24411;SDS011;12544;46.760;15.942;2022-12-13T03:57:29;11.43;;;8.48;;
24411;SDS011;12544;46.760;15.942;2022-12-13T03:59:55;12.95;;;8.10;;
24411;SDS011;12544;46.760;15.942;2022-12-13T04:02:21;12.60;;;8.88;;
24411;SDS011;12544;46.760;15.942;2022-12-13T04:04:46;10.10;;;8.15;;
24411;SDS011;12544;46.760;15.942;2022-12-13T04:07:13;10.98;;;7.18;;
24411;SDS011;12544;46.760;15.942;2022-12-13T04:09:39;13.15;;;8.80;;
24411;SDS011;12544;46.760;15.942;2022-12-13T04:12:04;12.82;;;8.40;;
24411;SDS011;12544;46.760;15.942;2022-12-13T04:14:49;13.15;;;7.95;;
24411;SDS011;12544;46.760;15.942;2022-12-13T04:17:14;15.32;;;7.90;;
24411;SDS011;12544;46.760;15.942;2022-12-13T04:19:40;11.13;;;7.85;;
24411;SDS011;12544;46.760;15.942;2022-12-13T04:22:05;11.23;;;8.20;;
24411;SDS011;12544;46.760;15.942;2022-12-13T04:24:32;10.93;;;7.63;;
24411;SDS011;12544;46.760;15.942;2022-12-13T04:26:59;10.93;;;6.95;;
24411;SDS011;12544;46.760;15.942;2022-12-13T04:29:25;10.30;;;7.82;;
24411;SDS011;12544;46.760;15.942;2022-12-13T04:31:50;13.70;;;9.05;;
24411;SDS011;12544;46.760;15.942;2022-12-13T04:34:16;16.75;;;9.30;;
24411;SDS011;12544;46.760;15.942;2022-12-13T04:36:42;15.32;;;10.52;;
24411;SDS011;12544;46.760;15.942;2022-12-13T04:39:07;12.50;;;9.68;;
24411;SDS011;12544;46.760;15.942;2022-12-13T04:41:36;15.35;;;9.77;;
24411;SDS011;12544;46.760;15.942;2022-12-13T04:44:03;13.13;;;8.60;;
24411;SDS011;12544;46.760;15.942;2022-12-13T04:46:29;14.38;;;9.70;;
24411;SDS011;12544;46.760;15.942;2022-12-13T04:48:55;16.25;;;10.50;;
24411;SDS011;12544;46.760;15.942;2022-12-13T04:51:21;11.15;;;8.65;;
24411;SDS011;12544;46.760;15.942;2022-12-13T04:53:46;12.63;;;8.77;;
24411;SDS011;12544;46.760;15.942;2022-12-13T04:56:12;14.32;;;9.27;;
24411;SDS011;12544;46.760;15.942;2022-12-13T04:58:38;12.30;;;9.63;;
24411;SDS011;12544;46.760;15.942;2022-12-13T05:01:07;12.40;;;9.88;;
24411;SDS011;12544;46.760;15.942;2022-12-13T05:03:34;16.00;;;10.15;;
24411;SDS011;12544;46.760;15.942;2022-12-13T05:06:06;13.00;;;9.15;;
24411;SDS011;12544;46.760;15.942;2022-12-13T05:08:34;13.90;;;9.98;;
24411;SDS011;12544;46.760;15.942;2022-12-13T05:11:01;18.42;;;12.07;;
24411;SDS011;12544;46.760;15.942;2022-12-13T05:13:27;17.55;;;10.60;;
24411;SDS011;12544;46.760;15.942;2022-12-13T05:15:56;16.30;;;11.73;;
24411;SDS011;12544;46.760;15.942;2022-12-13T05:18:24;18.85;;;13.05;;
24411;SDS011;12544;46.760;15.942;2022-12-13T05:20:49;16.17;;;12.55;;
24411;SDS011;12544;46.760;15.942;2022-12-13T05:23:16;22.02;;;12.45;;
24411;SDS011;12544;46.760;15.942;2022-12-13T05:25:42;20.42;;;12.55;;
24411;SDS011;12544;46.760;15.942;2022-12-13T05:28:08;18.83;;;11.63;;
24411;SDS011;12544;46.760;15.942;2022-12-13T05:30:36;16.73;;;10.82;;
24411;SDS011;12544;46.760;15.942;2022-12-13T05:33:05;16.95;;;10.45;;
24411;SDS011;12544;46.760;15.942;2022-12-13T05:35:31;13.93;;;9.18;;
24411;SDS011;12544;46.760;15.942;2022-12-13T05:37:57;11.95;;;7.70;;
24411;SDS011;12544;46.760;15.942;2022-12-13T05:40:23;9.80;;;6.63;;
24411;SDS011;12544;46.760;15.942;2022-12-13T05:42:50;9.90;;;7.88;;
24411;SDS011;12544;46.760;15.942;2022-12-13T05:45:18;10.50;;;7.28;;
24411;SDS011;12544;46.760;15.942;2022-12-13T05:47:45;13.02;;;8.30;;
24411;SDS011;12544;46.760;15.942;2022-12-13T05:50:11;12.65;;;8.88;;
24411;SDS011;12544;46.760;15.942;2022-12-13T05:52:38;10.15;;;7.13;;
24411;SDS011;12544;46.760;15.942;2022-12-13T05:55:04;10.73;;;7.40;;
24411;SDS011;12544;46.760;15.942;2022-12-13T05:57:29;13.25;;;8.00;;
24411;SDS011;12544;46.760;15.942;2022-12-13T05:59:55;11.00;;;7.63;;
24411;SDS011;12544;46.760;15.942;2022-12-13T06:02:21;10.32;;;7.50;;
24411;SDS011;12544;46.760;15.942;2022-12-13T06:04:48;12.85;;;8.02;;
24411;SDS011;12544;46.760;15.942;2022-12-13T06:07:14;12.02;;;8.02;;
24411;SDS011;12544;46.760;15.942;2022-12-13T06:09:39;14.05;;;8.43;;
24411;SDS011;12544;46.760;15.942;2022-12-13T06:12:05;10.05;;;7.80;;
24411;SDS011;12544;46.760;15.942;2022-12-13T06:14:31;10.63;;;7.80;;
24411;SDS011;12544;46.760;15.942;2022-12-13T06:16:57;9.27;;;7.50;;
24411;SDS011;12544;46.760;15.942;2022-12-13T06:19:22;10.70;;;7.75;;
24411;SDS011;12544;46.760;15.942;2022-12-13T06:21:49;13.40;;;8.45;;
24411;SDS011;12544;46.760;15.942;2022-12-13T06:24:17;13.18;;;7.95;;
24411;SDS011;12544;46.760;15.942;2022-12-13T06:26:44;11.52;;;8.18;;
24411;SDS011;12544;46.760;15.942;2022-12-13T06:29:10;14.27;;;9.38;;
24411;SDS011;12544;46.760;15.942;2022-12-13T06:31:36;14.27;;;9.35;;
24411;SDS011;12544;46.760;15.942;2022-12-13T06:34:02;13.57;;;9.48;;
24411;SDS011;12544;46.760;15.942;2022-12-13T06:36:28;10.65;;;8.18;;
24411;SDS011;12544;46.760;15.942;2022-12-13T06:38:54;14.63;;;8.65;;
24411;SDS011;12544;46.760;15.942;2022-12-13T06:41:20;10.93;;;7.60;;
24411;SDS011;12544;46.760;15.942;2022-12-13T06:43:46;11.18;;;8.38;;
24411;SDS011;12544;46.760;15.942;2022-12-13T06:46:13;13.15;;;8.98;;
24411;SDS011;12544;46.760;15.942;2022-12-13T06:48:40;14.05;;;9.43;;
24411;SDS011;12544;46.760;15.942;2022-12-13T06:51:07;19.33;;;9.93;;
24411;SDS011;12544;46.760;15.942;2022-12-13T06:53:37;14.60;;;10.35;;
24411;SDS011;12544;46.760;15.942;2022-12-13T06:56:04;12.93;;;9.93;;
24411;SDS011;12544;46.760;15.942;2022-12-13T06:58:32;18.05;;;10.80;;
24411;SDS011;12544;46.760;15.942;2022-12-13T07:01:06;14.93;;;9.90;;
24411;SDS011;12544;46.760;15.942;2022-12-13T07:03:32;19.63;;;10.82;;
24411;SDS011;12544;46.760;15.942;2022-12-13T07:05:59;18.98;;;11.85;;
24411;SDS011;12544;46.760;15.942;2022-12-13T07:08:28;17.88;;;11.55;;
24411;SDS011;12544;46.760;15.942;2022-12-13T07:10:53;19.17;;;11.60;;
24411;SDS011;12544;46.760;15.942;2022-12-13T07:13:20;14.65;;;11.85;;
24411;SDS011;12544;46.760;15.942;2022-12-13T07:15:46;18.67;;;12.60;;
24411;SDS011;12544;46.760;15.942;2022-12-13T07:18:12;20.75;;;13.55;;
24411;SDS011;12544;46.760;15.942;2022-12-13T07:20:38;14.85;;;11.77;;
24411;SDS011;12544;46.760;15.942;2022-12-13T07:23:04;23.60;;;13.65;;
24411;SDS011;12544;46.760;15.942;2022-12-13T07:25:30;18.17;;;13.55;;
24411;SDS011;12544;46.760;15.942;2022-12-13T07:27:57;19.15;;;13.07;;
24411;SDS011;12544;46.760;15.942;2022-12-13T07:30:23;21.27;;;12.65;;
24411;SDS011;12544;46.760;15.942;2022-12-13T07:32:49;33.55;;;18.67;;
24411;SDS011;12544;46.760;15.942;2022-12-13T07:35:15;31.63;;;18.25;;
24411;SDS011;12544;46.760;15.942;2022-12-13T07:37:41;21.70;;;15.32;;
24411;SDS011;12544;46.760;15.942;2022-12-13T07:40:07;20.45;;;13.10;;
24411;SDS011;12544;46.760;15.942;2022-12-13T07:42:34;29.75;;;17.02;;
24411;SDS011;12544;46.760;15.942;2022-12-13T07:45:00;24.48;;;14.35;;
24411;SDS011;12544;46.760;15.942;2022-12-13T07:47:29;23.42;;;15.52;;
24411;SDS011;12544;46.760;15.942;2022-12-13T07:49:55;21.15;;;12.85;;
24411;SDS011;12544;46.760;15.942;2022-12-13T07:52:23;21.38;;;12.73;;
24411;SDS011;12544;46.760;15.942;2022-12-13T07:54:48;24.60;;;13.75;;
24411;SDS011;12544;46.760;15.942;2022-12-13T07:57:14;22.55;;;14.00;;
24411;SDS011;12544;46.760;15.942;2022-12-13T07:59:40;14.80;;;10.35;;
24411;SDS011;12544;46.760;15.942;2022-12-13T08:02:06;14.57;;;10.60;;
24411;SDS011;12544;46.760;15.942;2022-12-13T08:04:47;16.98;;;10.85;;
24411;SDS011;12544;46.760;15.942;2022-12-13T08:07:13;13.85;;;9.88;;
24411;SDS011;12544;46.760;15.942;2022-12-13T08:09:39;16.63;;;11.55;;
24411;SDS011;12544;46.760;15.942;2022-12-13T08:12:04;16.02;;;11.10;;
24411;SDS011;12544;46.760;15.942;2022-12-13T08:14:32;16.95;;;10.25;;
24411;SDS011;12544;46.760;15.942;2022-12-13T08:16:58;16.58;;;11.10;;
24411;SDS011;12544;46.760;15.942;2022-12-13T08:19:24;17.65;;;11.30;;
24411;SDS011;12544;46.760;15.942;2022-12-13T08:21:49;18.23;;;12.35;;
24411;SDS011;12544;46.760;15.942;2022-12-13T08:24:16;17.90;;;11.73;;
24411;SDS011;12544;46.760;15.942;2022-12-13T08:26:42;17.60;;;10.38;;
24411;SDS011;12544;46.760;15.942;2022-12-13T08:29:08;15.82;;;11.10;;
24411;SDS011;12544;46.760;15.942;2022-12-13T08:31:34;17.92;;;12.20;;
24411;SDS011;12544;46.760;15.942;2022-12-13T08:33:59;20.52;;;12.63;;
24411;SDS011;12544;46.760;15.942;2022-12-13T08:36:25;16.63;;;11.57;;
24411;SDS011;12544;46.760;15.942;2022-12-13T08:38:53;14.07;;;10.73;;
24411;SDS011;12544;46.760;15.942;2022-12-13T08:41:19;17.20;;;12.00;;
24411;SDS011;12544;46.760;15.942;2022-12-13T08:43:45;18.02;;;11.82;;
24411;SDS011;12544;46.760;15.942;2022-12-13T08:46:11;16.60;;;11.63;;
24411;SDS011;12544;46.760;15.942;2022-12-13T08:48:37;22.00;;;12.77;;
24411;SDS011;12544;46.760;15.942;2022-12-13T08:51:06;17.98;;;12.00;;
24411;SDS011;12544;46.760;15.942;2022-12-13T08:53:33;18.45;;;11.93;;
24411;SDS011;12544;46.760;15.942;2022-12-13T08:56:03;17.50;;;12.38;;
24411;SDS011;12544;46.760;15.942;2022-12-13T08:58:31;18.70;;;12.52;;
24411;SDS011;12544;46.760;15.942;2022-12-13T09:00:57;17.10;;;11.38;;
24411;SDS011;12544;46.760;15.942;2022-12-13T09:03:36;17.20;;;12.00;;
24411;SDS011;12544;46.760;15.942;2022-12-13T09:06:09;16.23;;;11.05;;
24411;SDS011;12544;46.760;15.942;2022-12-13T09:08:37;13.15;;;10.68;;
24411;SDS011;12544;46.760;15.942;2022-12-13T09:11:03;16.33;;;10.90;;
24411;SDS011;12544;46.760;15.942;2022-12-13T09:13:33;13.77;;;10.45;;
24411;SDS011;12544;46.760;15.942;2022-12-13T09:16:08;16.05;;;11.10;;
24411;SDS011;12544;46.760;15.942;2022-12-13T09:18:37;15.95;;;9.98;;
24411;SDS011;12544;46.760;15.942;2022-12-13T09:21:10;21.63;;;11.38;;
24411;SDS011;12544;46.760;15.942;2022-12-13T09:23:37;19.75;;;11.73;;
24411;SDS011;12544;46.760;15.942;2022-12-13T09:26:05;16.25;;;12.27;;
24411;SDS011;12544;46.760;15.942;2022-12-13T09:28:32;14.88;;;10.65;;
24411;SDS011;12544;46.760;15.942;2022-12-13T09:30:59;16.00;;;11.57;;
24411;SDS011;12544;46.760;15.942;2022-12-13T09:33:26;15.48;;;11.07;;
24411;SDS011;12544;46.760;15.942;2022-12-13T09:35:51;16.92;;;12.00;;
24411;SDS011;12544;46.760;15.942;2022-12-13T09:38:17;13.25;;;10.15;;
24411;SDS011;12544;46.760;15.942;2022-12-13T09:40:43;15.35;;;10.77;;
24411;SDS011;12544;46.760;15.942;2022-12-13T09:43:13;14.82;;;10.80;;
24411;SDS011;12544;46.760;15.942;2022-12-13T09:45:45;11.70;;;9.48;;
24411;SDS011;12544;46.760;15.942;2022-12-13T09:48:15;12.25;;;9.93;;
24411;SDS011;12544;46.760;15.942;2022-12-13T09:50:46;16.75;;;9.35;;
24411;SDS011;12544;46.760;15.942;2022-12-13T09:53:16;14.65;;;9.75;;
24411;SDS011;12544;46.760;15.942;2022-12-13T09:55:44;12.27;;;9.35;;
24411;SDS011;12544;46.760;15.942;2022-12-13T09:58:25;16.17;;;10.05;;
24411;SDS011;12544;46.760;15.942;2022-12-13T10:00:53;10.98;;;9.75;;
24411;SDS011;12544;46.760;15.942;2022-12-13T10:03:22;12.18;;;9.18;;
24411;SDS011;12544;46.760;15.942;2022-12-13T10:05:58;12.40;;;9.00;;
24411;SDS011;12544;46.760;15.942;2022-12-13T10:08:34;15.73;;;9.10;;
24411;SDS011;12544;46.760;15.942;2022-12-13T10:11:02;14.75;;;9.32;;
24411;SDS011;12544;46.760;15.942;2022-12-13T10:19:00;14.05;;;8.75;;
24411;SDS011;12544;46.760;15.942;2022-12-13T10:21:46;26.55;;;11.90;;
24411;SDS011;12544;46.760;15.942;2022-12-13T10:24:13;13.32;;;9.85;;
24411;SDS011;12544;46.760;15.942;2022-12-13T10:26:44;12.23;;;9.70;;
24411;SDS011;12544;46.760;15.942;2022-12-13T10:29:10;12.20;;;8.00;;
24411;SDS011;12544;46.760;15.942;2022-12-13T10:31:43;11.93;;;8.73;;
24411;SDS011;12544;46.760;15.942;2022-12-13T10:34:28;9.73;;;7.65;;
24411;SDS011;12544;46.760;15.942;2022-12-13T10:36:59;10.93;;;6.65;;
24411;SDS011;12544;46.760;15.942;2022-12-13T10:42:16;8.65;;;6.75;;
24411;SDS011;12544;46.760;15.942;2022-12-13T10:44:43;6.45;;;4.53;;
24411;SDS011;12544;46.760;15.942;2022-12-13T10:49:55;5.18;;;3.53;;
24411;SDS011;12544;46.760;15.942;2022-12-13T10:55:25;7.95;;;6.25;;
24411;SDS011;12544;46.760;15.942;2022-12-13T10:58:01;9.15;;;6.60;;
24411;SDS011;12544;46.760;15.942;2022-12-13T11:03:32;11.57;;;8.45;;
24411;SDS011;12544;46.760;15.942;2022-12-13T11:06:14;11.70;;;7.05;;
24411;SDS011;12544;46.760;15.942;2022-12-13T11:08:41;8.32;;;7.47;;
24411;SDS011;12544;46.760;15.942;2022-12-13T11:11:07;10.52;;;7.32;;
24411;SDS011;12544;46.760;15.942;2022-12-13T11:13:35;8.35;;;7.13;;
24411;SDS011;12544;46.760;15.942;2022-12-13T11:16:12;8.90;;;7.65;;
24411;SDS011;12544;46.760;15.942;2022-12-13T11:21:28;9.50;;;7.65;;
24411;SDS011;12544;46.760;15.942;2022-12-13T11:23:57;8.32;;;6.68;;
24411;SDS011;12544;46.760;15.942;2022-12-13T11:29:56;9.45;;;6.32;;
24411;SDS011;12544;46.760;15.942;2022-12-13T11:39:56;9.68;;;6.70;;
24411;SDS011;12544;46.760;15.942;2022-12-13T11:42:30;9.48;;;7.03;;
24411;SDS011;12544;46.760;15.942;2022-12-13T11:45:18;10.57;;;6.15;;
24411;SDS011;12544;46.760;15.942;2022-12-13T11:50:38;9.85;;;6.65;;
24411;SDS011;12544;46.760;15.942;2022-12-13T11:58:29;7.75;;;6.85;;
24411;SDS011;12544;46.760;15.942;2022-12-13T12:01:02;7.32;;;6.60;;
24411;SDS011;12544;46.760;15.942;2022-12-13T12:03:36;11.68;;;8.20;;
24411;SDS011;12544;46.760;15.942;2022-12-13T12:06:27;10.00;;;8.23;;
24411;SDS011;12544;46.760;15.942;2022-12-13T12:14:59;16.10;;;8.27;;
24411;SDS011;12544;46.760;15.942;2022-12-13T12:17:05;10.45;;;8.38;;
24411;SDS011;12544;46.760;15.942;2022-12-13T12:19:37;11.52;;;8.75;;
24411;SDS011;12544;46.760;15.942;2022-12-13T12:27:19;11.27;;;9.65;;
24411;SDS011;12544;46.760;15.942;2022-12-13T12:30:28;10.90;;;8.55;;
24411;SDS011;12544;46.760;15.942;2022-12-13T12:33:29;11.82;;;9.05;;
24411;SDS011;12544;46.760;15.942;2022-12-13T12:39:07;11.70;;;9.98;;
24411;SDS011;12544;46.760;15.942;2022-12-13T13:03:56;11.88;;;9.57;;
24411;SDS011;12544;46.760;15.942;2022-12-13T13:06:29;16.38;;;10.75;;
24411;SDS011;12544;46.760;15.942;2022-12-13T13:09:06;13.55;;;10.18;;
24411;SDS011;12544;46.760;15.942;2022-12-13T13:11:34;17.20;;;10.73;;
24411;SDS011;12544;46.760;15.942;2022-12-13T13:14:04;23.85;;;13.90;;
24411;SDS011;12544;46.760;15.942;2022-12-13T13:16:52;31.83;;;16.58;;
24411;SDS011;12544;46.760;15.942;2022-12-13T13:24:21;22.92;;;15.10;;
24411;SDS011;12544;46.760;15.942;2022-12-13T13:34:36;18.58;;;13.52;;
24411;SDS011;12544;46.760;15.942;2022-12-13T13:37:07;15.48;;;12.45;;
24411;SDS011;12544;46.760;15.942;2022-12-13T13:39:59;16.50;;;12.07;;
24411;SDS011;12544;46.760;15.942;2022-12-13T13:43:28;18.33;;;12.25;;
24411;SDS011;12544;46.760;15.942;2022-12-13T13:56:35;15.50;;;11.95;;
24411;SDS011;12544;46.760;15.942;2022-12-13T14:19:08;21.58;;;15.02;;
24411;SDS011;12544;46.760;15.942;2022-12-13T14:30:11;19.85;;;13.88;;
24411;SDS011;12544;46.760;15.942;2022-12-13T14:32:39;21.50;;;15.23;;
24411;SDS011;12544;46.760;15.942;2022-12-13T14:35:19;31.88;;;19.88;;
24411;SDS011;12544;46.760;15.942;2022-12-13T14:37:57;22.23;;;16.42;;
24411;SDS011;12544;46.760;15.942;2022-12-13T14:42:50;26.00;;;17.67;;
24411;SDS011;12544;46.760;15.942;2022-12-13T14:45:26;25.60;;;15.77;;
24411;SDS011;12544;46.760;15.942;2022-12-13T14:48:09;27.33;;;17.45;;
24411;SDS011;12544;46.760;15.942;2022-12-13T14:50:38;23.95;;;14.95;;
24411;SDS011;12544;46.760;15.942;2022-12-13T14:53:06;21.17;;;15.95;;
24411;SDS011;12544;46.760;15.942;2022-12-13T14:56:04;23.77;;;16.52;;
24411;SDS011;12544;46.760;15.942;2022-12-13T15:04:18;21.95;;;16.27;;
24411;SDS011;12544;46.760;15.942;2022-12-13T15:06:57;22.73;;;15.90;;
24411;SDS011;12544;46.760;15.942;2022-12-13T15:09:26;22.38;;;16.52;;
24411;SDS011;12544;46.760;15.942;2022-12-13T15:14:47;27.45;;;16.83;;
24411;SDS011;12544;46.760;15.942;2022-12-13T15:19:50;26.50;;;16.92;;
24411;SDS011;12544;46.760;15.942;2022-12-13T15:22:15;28.30;;;17.02;;
24411;SDS011;12544;46.760;15.942;2022-12-13T15:24:41;28.63;;;17.50;;
24411;SDS011;12544;46.760;15.942;2022-12-13T15:27:13;23.52;;;14.90;;
24411;SDS011;12544;46.760;15.942;2022-12-13T15:29:41;27.27;;;16.83;;
24411;SDS011;12544;46.760;15.942;2022-12-13T15:32:11;25.08;;;16.23;;
24411;SDS011;12544;46.760;15.942;2022-12-13T15:34:40;26.00;;;16.35;;
24411;SDS011;12544;46.760;15.942;2022-12-13T15:37:14;30.75;;;19.55;;
24411;SDS011;12544;46.760;15.942;2022-12-13T15:39:43;28.83;;;17.92;;
24411;SDS011;12544;46.760;15.942;2022-12-13T15:42:17;32.58;;;18.00;;
24411;SDS011;12544;46.760;15.942;2022-12-13T15:45:06;28.73;;;17.75;;
24411;SDS011;12544;46.760;15.942;2022-12-13T15:47:45;18.50;;;15.27;;
24411;SDS011;12544;46.760;15.942;2022-12-13T15:50:30;25.52;;;17.85;;
24411;SDS011;12544;46.760;15.942;2022-12-13T15:52:59;30.00;;;17.63;;
24411;SDS011;12544;46.760;15.942;2022-12-13T15:55:31;25.73;;;16.70;;
24411;SDS011;12544;46.760;15.942;2022-12-13T15:58:01;26.20;;;16.77;;
24411;SDS011;12544;46.760;15.942;2022-12-13T16:00:30;28.35;;;17.88;;
24411;SDS011;12544;46.760;15.942;2022-12-13T16:05:34;27.02;;;18.17;;
24411;SDS011;12544;46.760;15.942;2022-12-13T16:08:05;27.40;;;18.55;;
24411;SDS011;12544;46.760;15.942;2022-12-13T16:10:32;24.55;;;17.42;;
24411;SDS011;12544;46.760;15.942;2022-12-13T16:13:03;33.08;;;20.25;;
24411;SDS011;12544;46.760;15.942;2022-12-13T16:15:45;29.67;;;18.85;;
24411;SDS011;12544;46.760;15.942;2022-12-13T16:18:18;27.92;;;18.58;;
24411;SDS011;12544;46.760;15.942;2022-12-13T16:23:51;27.60;;;17.13;;
24411;SDS011;12544;46.760;15.942;2022-12-13T16:26:23;21.40;;;16.40;;
24411;SDS011;12544;46.760;15.942;2022-12-13T16:28:52;26.17;;;17.35;;
24411;SDS011;12544;46.760;15.942;2022-12-13T16:33:51;24.80;;;16.30;;
24411;SDS011;12544;46.760;15.942;2022-12-13T16:36:17;25.88;;;17.27;;
24411;SDS011;12544;46.760;15.942;2022-12-13T16:38:43;25.50;;;16.30;;
24411;SDS011;12544;46.760;15.942;2022-12-13T16:41:09;28.00;;;17.25;;
24411;SDS011;12544;46.760;15.942;2022-12-13T16:43:36;30.65;;;18.48;;
24411;SDS011;12544;46.760;15.942;2022-12-13T16:48:55;41.58;;;24.80;;
24411;SDS011;12544;46.760;15.942;2022-12-13T16:51:21;40.95;;;23.52;;
24411;SDS011;12544;46.760;15.942;2022-12-13T16:56:31;25.67;;;16.70;;
24411;SDS011;12544;46.760;15.942;2022-12-13T16:58:57;23.92;;;17.05;;
24411;SDS011;12544;46.760;15.942;2022-12-13T17:03:57;25.08;;;17.15;;
24411;SDS011;12544;46.760;15.942;2022-12-13T17:06:22;26.05;;;18.42;;
24411;SDS011;12544;46.760;15.942;2022-12-13T17:08:49;26.38;;;17.25;;
24411;SDS011;12544;46.760;15.942;2022-12-13T17:11:15;26.15;;;16.55;;
24411;SDS011;12544;46.760;15.942;2022-12-13T17:13:40;26.95;;;16.50;;
24411;SDS011;12544;46.760;15.942;2022-12-13T17:16:08;23.23;;;15.07;;
24411;SDS011;12544;46.760;15.942;2022-12-13T17:18:34;24.67;;;15.98;;
24411;SDS011;12544;46.760;15.942;2022-12-13T17:21:04;25.45;;;15.98;;
24411;SDS011;12544;46.760;15.942;2022-12-13T17:23:32;23.02;;;15.68;;
24411;SDS011;12544;46.760;15.942;2022-12-13T17:26:02;22.52;;;15.50;;
24411;SDS011;12544;46.760;15.942;2022-12-13T17:28:28;24.02;;;15.38;;
24411;SDS011;12544;46.760;15.942;2022-12-13T17:31:02;26.15;;;16.15;;